Time;durP1;ratioP1;P1;durP2;ratioP2;P2;SDS_P1;SDS_P2;PMS_P1;PMS_P2;Temp;Humidity;BMP_temperature;BMP_pressure;BME280_temperature;BME280_humidity;BME280_pressure;Samples;Min_cycle;Max_cycle;Signal;HPM_P1;HPM_P2
2023/01/08 00:00:21;;;;;;;16.20;12.15;;;;;;;4.68;74.18;96187.66;4975499;28;20055;-75
2023/01/08 00:02:50;;;;;;;17.38;12.65;;;;;;;4.72;73.92;96183.81;4975632;28;20105;-75
2023/01/08 00:05:17;;;;;;;15.55;11.00;;;;;;;4.74;73.93;96187.06;4974773;28;20563;-75
2023/01/08 00:07:46;;;;;;;15.32;11.20;;;;;;;4.73;73.51;96188.84;4974545;28;20511;-75
2023/01/08 00:10:14;;;;;;;13.82;11.75;;;;;;;4.73;73.77;96193.19;4975252;28;20425;-75
2023/01/08 00:12:41;;;;;;;16.00;11.65;;;;;;;4.72;73.52;96199.31;4974633;28;20058;-75
2023/01/08 00:15:09;;;;;;;15.50;11.45;;;;;;;4.71;73.44;96188.19;4975095;28;20055;-75
2023/01/08 00:17:37;;;;;;;14.82;10.82;;;;;;;4.68;73.75;96183.34;4974152;28;20047;-75
2023/01/08 00:20:05;;;;;;;17.45;12.60;;;;;;;4.67;73.96;96183.47;4974191;28;20051;-75
2023/01/08 00:22:33;;;;;;;16.45;10.95;;;;;;;4.64;73.54;96176.84;4974616;28;20073;-75
2023/01/08 00:25:02;;;;;;;16.45;12.10;;;;;;;4.66;73.68;96179.28;4974722;28;20050;-75
2023/01/08 00:27:30;;;;;;;17.45;11.65;;;;;;;4.64;73.47;96176.84;4974755;28;20069;-75
2023/01/08 00:29:57;;;;;;;16.58;12.55;;;;;;;4.67;73.92;96181.69;4974137;28;20512;-75
2023/01/08 00:32:25;;;;;;;17.02;12.38;;;;;;;4.68;73.76;96164.41;4974912;28;20046;-75
2023/01/08 00:34:53;;;;;;;16.55;12.40;;;;;;;4.65;73.43;96162.16;4976429;28;20050;-75
2023/01/08 00:37:20;;;;;;;16.70;11.98;;;;;;;4.63;73.83;96166.66;4975360;28;20057;-75
2023/01/08 00:39:48;;;;;;;16.63;11.73;;;;;;;4.62;73.50;96157.31;4974131;28;20046;-76
2023/01/08 00:42:17;;;;;;;17.27;12.40;;;;;;;4.60;73.50;96160.03;4974196;28;20053;-75
2023/01/08 00:44:44;;;;;;;15.82;10.65;;;;;;;4.60;73.42;96159.25;4973990;28;20496;-75
2023/01/08 00:47:13;;;;;;;14.82;10.85;;;;;;;4.59;73.70;96147.28;4974133;28;20054;-75
2023/01/08 00:49:41;;;;;;;15.77;11.57;;;;;;;4.58;73.62;96150.84;4973804;28;20058;-75
2023/01/08 00:52:08;;;;;;;14.65;11.02;;;;;;;4.57;73.89;96149.19;4974141;28;20077;-75
2023/01/08 00:54:36;;;;;;;15.90;12.15;;;;;;;4.56;73.63;96148.41;4973966;28;20497;-75
2023/01/08 00:57:03;;;;;;;17.45;11.48;;;;;;;4.57;73.84;96147.44;4974167;28;20497;-75
2023/01/08 00:59:32;;;;;;;15.77;11.57;;;;;;;4.59;73.60;96152.44;4973475;28;20077;-75
2023/01/08 01:02:00;;;;;;;16.38;12.18;;;;;;;4.59;73.98;96136.94;4973941;28;20059;-75
2023/01/08 01:04:27;;;;;;;18.27;11.75;;;;;;;4.59;73.78;96136.94;4973878;28;20051;-75
2023/01/08 01:06:55;;;;;;;16.00;10.13;;;;;;;4.59;73.73;96140.34;4973371;28;20050;-75
2023/01/08 01:09:23;;;;;;;15.95;11.57;;;;;;;4.60;73.90;96128.25;4973612;28;20051;-75
2023/01/08 01:11:50;;;;;;;15.10;11.02;;;;;;;4.61;73.54;96124.69;4973910;28;20516;-75
2023/01/08 01:14:18;;;;;;;14.43;10.98;;;;;;;4.62;73.65;96121.16;4974005;28;20050;-75
2023/01/08 01:16:47;;;;;;;15.65;10.52;;;;;;;4.63;73.60;96123.56;4973784;28;20055;-75
2023/01/08 01:19:15;;;;;;;15.63;11.55;;;;;;;4.65;73.95;96121.63;4973373;28;20055;-75
2023/01/08 01:21:43;;;;;;;15.40;10.95;;;;;;;4.67;73.43;96121.47;4973703;28;20054;-75
2023/01/08 01:24:12;;;;;;;15.48;11.20;;;;;;;4.67;73.83;96108.56;4973550;28;20047;-75
2023/01/08 01:26:41;;;;;;;15.73;11.10;;;;;;;4.69;73.95;96109.22;4973608;28;20224;-75
2023/01/08 01:29:08;;;;;;;16.50;11.23;;;;;;;4.72;73.45;96104.56;4973596;28;20228;-75
2023/01/08 01:31:36;;;;;;;16.63;11.77;;;;;;;4.76;73.39;96107.63;4973176;28;20051;-75
2023/01/08 01:34:05;;;;;;;13.00;10.02;;;;;;;4.82;73.82;96116.53;4973400;28;20047;-75
2023/01/08 01:36:32;;;;;;;13.35;9.70;;;;;;;4.83;73.47;96118.97;4973480;28;20046;-75
2023/01/08 01:39:00;;;;;;;15.57;10.27;;;;;;;4.85;73.33;96114.41;4973529;28;20055;-75
2023/01/08 01:41:30;;;;;;;15.75;10.50;;;;;;;4.88;73.53;96121.06;4973640;28;20425;-75
2023/01/08 01:43:59;;;;;;;15.77;10.68;;;;;;;4.91;72.96;96111.19;4973756;28;20053;-75
2023/01/08 01:46:36;;;;;;;15.00;10.40;;;;;;;4.93;73.36;96106.69;4973764;28;20158;-75
2023/01/08 01:49:09;;;;;;;14.52;10.02;;;;;;;4.92;73.23;96107.66;4975068;28;20424;-75
2023/01/08 01:51:40;;;;;;;14.45;10.55;;;;;;;4.93;72.87;96106.69;4977382;28;20062;-75
2023/01/08 01:54:11;;;;;;;13.40;9.98;;;;;;;4.97;73.16;96103.81;4977570;28;20069;-75
2023/01/08 01:56:39;;;;;;;13.90;10.10;;;;;;;5.03;72.97;96108.31;4977275;28;20054;-75
2023/01/08 01:59:06;;;;;;;15.45;10.60;;;;;;;5.07;72.72;96109.63;4977146;28;20054;-75
2023/01/08 02:01:34;;;;;;;14.25;10.30;;;;;;;5.05;72.50;96108.97;4977555;28;20060;-75
2023/01/08 02:04:02;;;;;;;12.90;9.48;;;;;;;5.05;72.54;96121.88;4978484;28;20121;-75
2023/01/08 02:06:36;;;;;;;13.20;9.75;;;;;;;5.08;72.15;96127.56;4978396;28;20051;-75
2023/01/08 02:09:09;;;;;;;13.88;9.77;;;;;;;5.11;72.43;96129.81;4977458;28;20047;-75
2023/01/08 02:11:45;;;;;;;14.50;9.82;;;;;;;5.10;71.67;96120.47;4991104;28;20062;-75
2023/01/08 02:14:22;;;;;;;14.40;10.73;;;;;;;5.12;72.15;96115.13;4996613;28;20074;-75
2023/01/08 02:16:57;;;;;;;14.05;8.55;;;;;;;5.16;71.66;96122.41;4978526;28;20050;-75
2023/01/08 02:19:40;;;;;;;13.35;9.35;;;;;;;5.19;71.31;96121.28;4977037;28;20055;-76
2023/01/08 02:22:21;;;;;;;13.70;9.43;;;;;;;5.19;71.40;96118.69;4977048;28;20051;-76
2023/01/08 02:24:55;;;;;;;13.30;9.23;;;;;;;5.18;71.42;96124.81;4976920;28;20061;-75
2023/01/08 02:27:27;;;;;;;12.75;9.30;;;;;;;5.20;71.40;96117.72;4976993;28;20055;-75
2023/01/08 02:29:56;;;;;;;12.60;9.57;;;;;;;5.23;71.08;96111.44;4976794;28;20050;-75
2023/01/08 02:32:27;;;;;;;12.02;8.48;;;;;;;5.22;71.06;96115.78;4976565;28;20054;-75
2023/01/08 02:34:55;;;;;;;13.35;9.45;;;;;;;5.22;71.31;96112.38;4976554;28;20441;-75
2023/01/08 02:37:23;;;;;;;13.27;9.88;;;;;;;5.20;71.16;96094.44;4976474;28;20050;-75
2023/01/08 02:40:06;;;;;;;12.13;9.15;;;;;;;5.17;71.59;96084.44;4975912;28;20047;-75
2023/01/08 02:42:43;;;;;;;14.20;8.85;;;;;;;5.15;71.23;96081.19;4976204;28;20059;-75
2023/01/08 02:45:21;;;;;;;12.88;8.82;;;;;;;5.13;71.06;96062.44;4976298;28;20053;-75
2023/01/08 02:47:53;;;;;;;12.20;8.18;;;;;;;5.14;71.08;96058.91;4975909;28;20081;-75
2023/01/08 02:50:25;;;;;;;14.15;8.90;;;;;;;5.14;71.31;96061.50;4976082;28;20050;-75
2023/01/08 02:53:01;;;;;;;14.82;9.90;;;;;;;5.14;71.18;96051.94;4975918;28;20424;-75
2023/01/08 02:55:31;;;;;;;12.95;9.68;;;;;;;5.16;71.10;96052.59;4975946;28;20059;-75
2023/01/08 02:58:00;;;;;;;13.75;9.23;;;;;;;5.20;71.60;96037.56;4975271;28;20046;-75
2023/01/08 03:00:29;;;;;;;15.25;9.52;;;;;;;5.24;71.00;96033.69;4975139;28;20054;-76
2023/01/08 03:03:05;;;;;;;13.77;9.15;;;;;;;5.24;70.64;96033.69;4975909;28;20133;-75
2023/01/08 03:05:34;;;;;;;14.32;9.25;;;;;;;5.26;71.17;96031.75;4975833;28;20051;-75
2023/01/08 03:08:02;;;;;;;15.40;10.90;;;;;;;5.26;70.76;96029.16;5046699;23;20050;-81
2023/01/08 03:10:31;;;;;;;19.98;11.88;;;;;;;5.26;70.61;96026.56;4998348;28;20475;-81
2023/01/08 03:13:05;;;;;;;18.90;11.52;;;;;;;5.24;70.44;96017.38;4998453;28;20053;-81
2023/01/08 03:15:41;;;;;;;13.90;10.13;;;;;;;5.17;69.88;96014.63;4998405;28;20057;-81
2023/01/08 03:28:57;;;;;;;13.75;8.27;;;;;;;5.02;71.18;95998.16;5285168;22;20516;-81
2023/01/08 04:18:46;;;;;;;13.85;10.77;;;;;;;5.07;71.37;95973.44;4880122;29;20065;-80
2023/01/08 04:21:16;;;;;;;16.45;11.82;;;;;;;5.04;71.30;95963.41;4877780;29;20056;-79
2023/01/08 04:23:44;;;;;;;15.27;11.52;;;;;;;4.98;71.51;95968.41;4878690;29;20084;-79
2023/01/08 04:26:11;;;;;;;16.27;11.32;;;;;;;4.90;71.80;95962.28;4877921;29;20458;-79
2023/01/08 04:28:39;;;;;;;17.02;11.80;;;;;;;4.86;72.00;95973.09;4876505;29;20162;-78
2023/01/08 04:31:08;;;;;;;17.42;13.02;;;;;;;4.80;72.20;95969.38;4879769;29;20060;-79
2023/01/08 04:33:35;;;;;;;16.27;12.05;;;;;;;4.79;72.36;95972.13;4884140;29;20097;-78
2023/01/08 04:36:05;;;;;;;14.23;11.15;;;;;;;4.82;72.68;95974.41;4883452;29;20049;-78
2023/01/08 04:38:33;;;;;;;16.00;11.52;;;;;;;4.82;72.84;95962.28;4894475;29;20080;-79
2023/01/08 04:41:01;;;;;;;14.20;10.40;;;;;;;4.84;73.15;95967.28;4894321;29;20083;-79
2023/01/08 04:43:29;;;;;;;15.20;11.55;;;;;;;4.92;73.02;95970.69;4885548;29;20144;-79
2023/01/08 04:45:57;;;;;;;16.98;12.00;;;;;;;4.97;72.70;95977.16;4877268;29;20049;-78
2023/01/08 04:48:25;;;;;;;16.60;11.93;;;;;;;5.00;72.81;95962.09;4876420;29;20092;-79
2023/01/08 04:50:53;;;;;;;15.95;11.10;;;;;;;5.08;72.67;95971.66;4893739;29;20057;-78
2023/01/08 04:53:22;;;;;;;18.80;11.98;;;;;;;5.14;72.61;95976.19;4895308;29;20056;-79
2023/01/08 04:55:49;;;;;;;14.45;10.90;;;;;;;5.19;72.55;95973.91;4895346;29;20142;-78
2023/01/08 04:58:17;;;;;;;15.60;12.27;;;;;;;5.26;72.48;95979.22;4895123;29;20045;-78
2023/01/08 05:00:44;;;;;;;13.82;10.60;;;;;;;5.31;72.65;95977.78;4922008;28;20220;-79
2023/01/08 05:03:13;;;;;;;15.65;11.25;;;;;;;5.34;72.48;95979.22;4996433;28;20041;-79
2023/01/08 05:05:41;;;;;;;15.32;11.60;;;;;;;5.36;72.62;95970.31;4989262;28;20046;-78
2023/01/08 05:08:08;;;;;;;13.25;9.95;;;;;;;5.40;72.28;95975.97;4975730;28;20126;-79
2023/01/08 05:10:37;;;;;;;14.90;10.95;;;;;;;5.43;72.59;95973.06;4974856;28;20050;-78
2023/01/08 05:13:05;;;;;;;14.13;10.80;;;;;;;5.47;72.38;95966.59;4974146;28;20051;-78
2023/01/08 05:15:32;;;;;;;17.98;12.07;;;;;;;5.50;72.50;95970.63;4973854;28;20062;-78
2023/01/08 05:18:01;;;;;;;15.32;11.10;;;;;;;5.52;72.47;95972.06;4974073;28;20073;-78
2023/01/08 05:20:29;;;;;;;15.93;11.60;;;;;;;5.54;72.31;95974.47;4974094;28;20046;-79
2023/01/08 05:22:57;;;;;;;15.05;10.43;;;;;;;5.55;72.70;95968.31;4975871;28;20047;-78
2023/01/08 05:25:25;;;;;;;14.32;10.02;;;;;;;5.57;72.33;95964.63;4978014;28;20255;-78
2023/01/08 05:27:54;;;;;;;16.20;10.95;;;;;;;5.60;72.39;95967.81;4977514;28;20079;-78
2023/01/08 05:30:21;;;;;;;16.17;11.45;;;;;;;5.60;72.41;95976.41;4977506;28;20055;-78
2023/01/08 05:32:49;;;;;;;12.98;9.98;;;;;;;5.56;72.00;95975.13;4977943;28;20046;-79
2023/01/08 05:35:16;;;;;;;16.40;10.48;;;;;;;5.51;72.31;95970.47;4977746;28;20050;-78
2023/01/08 05:37:44;;;;;;;15.75;10.68;;;;;;;5.49;72.24;95969.00;4977473;28;20054;-78
2023/01/08 05:40:12;;;;;;;14.63;10.55;;;;;;;5.42;72.40;95971.41;4977511;28;20047;-78
2023/01/08 05:42:39;;;;;;;13.73;10.85;;;;;;;5.43;72.56;95975.63;4977475;28;20129;-79
2023/01/08 05:45:09;;;;;;;14.43;10.40;;;;;;;5.45;72.65;95978.06;4978270;28;20046;-79
2023/01/08 05:47:37;;;;;;;14.13;11.05;;;;;;;5.46;72.28;95980.47;4977716;28;20051;-78
2023/01/08 05:50:05;;;;;;;13.43;10.77;;;;;;;5.48;72.30;95977.72;4977112;28;20424;-78
2023/01/08 05:52:32;;;;;;;14.90;10.38;;;;;;;5.48;72.55;95975.94;4977165;28;20046;-78
2023/01/08 05:55:00;;;;;;;11.50;9.43;;;;;;;5.51;72.47;95983.38;4977076;28;20054;-78
2023/01/08 05:57:27;;;;;;;15.13;10.48;;;;;;;5.54;72.32;95977.06;4976792;28;20094;-78
2023/01/08 05:59:55;;;;;;;15.82;10.55;;;;;;;5.55;72.29;95970.91;4977049;28;20189;-78
2023/01/08 06:02:24;;;;;;;16.10;10.85;;;;;;;5.58;72.29;95973.97;4977189;28;20484;-78
2023/01/08 06:04:51;;;;;;;15.75;11.40;;;;;;;5.66;72.12;95980.09;4977004;28;20046;-78
2023/01/08 06:07:19;;;;;;;17.65;11.18;;;;;;;5.69;72.08;95975.41;4977279;28;20043;-79
2023/01/08 06:09:46;;;;;;;16.17;11.45;;;;;;;5.71;72.14;95968.28;4976484;28;20058;-79
2023/01/08 06:12:14;;;;;;;14.50;11.38;;;;;;;5.71;71.92;95962.31;4977151;28;20047;-78
2023/01/08 06:14:41;;;;;;;16.02;10.32;;;;;;;5.72;72.00;95959.53;4977858;28;20409;-78
2023/01/08 06:17:09;;;;;;;14.00;10.13;;;;;;;5.70;71.65;95964.06;4976506;28;20047;-78
2023/01/08 06:19:39;;;;;;;13.60;10.05;;;;;;;5.71;72.08;95973.47;4976723;28;20058;-78
2023/01/08 06:22:06;;;;;;;14.48;10.15;;;;;;;5.72;72.01;95967.31;4977543;28;20047;-78
2023/01/08 06:24:33;;;;;;;14.40;10.05;;;;;;;5.74;72.08;95957.59;4976941;28;20050;-78
2023/01/08 06:27:01;;;;;;;12.43;9.15;;;;;;;5.76;72.00;95965.22;4976734;28;20054;-78
2023/01/08 06:29:28;;;;;;;11.20;8.85;;;;;;;5.81;71.75;95956.94;4976651;28;20410;-79
2023/01/08 06:31:56;;;;;;;14.00;9.70;;;;;;;5.83;71.79;95960.16;4976452;28;20050;-78
2023/01/08 06:34:23;;;;;;;13.82;10.27;;;;;;;5.84;71.77;95967.78;4975739;28;20065;-79
2023/01/08 06:36:52;;;;;;;13.40;9.65;;;;;;;5.84;71.38;95972.94;4976229;28;20057;-78
2023/01/08 06:39:20;;;;;;;15.30;10.65;;;;;;;5.88;71.75;95970.81;4976975;28;20069;-79
2023/01/08 06:41:47;;;;;;;14.80;10.48;;;;;;;5.87;71.33;95961.44;4976864;28;20050;-79
2023/01/08 06:44:15;;;;;;;12.90;10.00;;;;;;;5.83;71.58;95955.00;4976235;28;20436;-78
2023/01/08 06:46:42;;;;;;;17.20;10.75;;;;;;;5.80;71.76;95961.31;4976349;28;20049;-79
2023/01/08 06:49:10;;;;;;;13.88;10.40;;;;;;;5.77;71.79;95959.88;4975940;28;20428;-78
2023/01/08 06:51:38;;;;;;;14.82;10.70;;;;;;;5.74;71.88;95952.41;4975952;28;20493;-78
2023/01/08 06:54:07;;;;;;;13.05;9.75;;;;;;;5.71;71.64;95950.19;4975968;28;20082;-79
2023/01/08 06:56:34;;;;;;;12.20;8.93;;;;;;;5.70;71.60;95960.69;4975894;28;20053;-78
2023/01/08 06:59:19;;;;;;;13.23;10.60;;;;;;;5.72;71.51;95964.72;4975922;28;20054;-79
2023/01/08 07:01:47;;;;;;;15.95;11.20;;;;;;;5.72;71.88;95967.31;4976199;28;20062;-78
2023/01/08 07:04:14;;;;;;;13.57;10.18;;;;;;;5.71;71.48;95983.03;4985560;28;20053;-79
2023/01/08 07:06:42;;;;;;;14.52;10.13;;;;;;;5.69;71.61;95980.59;4990573;28;20086;-78
2023/01/08 07:09:12;;;;;;;15.40;10.60;;;;;;;5.69;71.83;95978.00;4973751;28;20134;-78
2023/01/08 07:11:40;;;;;;;14.93;11.07;;;;;;;5.65;71.54;95968.94;4957030;28;20087;-78
2023/01/08 07:14:08;;;;;;;14.73;10.48;;;;;;;5.63;71.77;95965.72;4956825;28;20074;-78
2023/01/08 07:16:38;;;;;;;13.45;10.38;;;;;;;5.58;71.87;95960.25;4961327;28;20046;-78
2023/01/08 07:19:05;;;;;;;14.88;10.02;;;;;;;5.55;71.99;95963.97;4975518;28;20117;-78
2023/01/08 07:21:33;;;;;;;14.60;12.07;;;;;;;5.52;71.85;95963.50;4975149;28;20057;-78
2023/01/08 07:24:00;;;;;;;13.95;11.07;;;;;;;5.48;72.04;95957.03;4975805;28;20062;-78
2023/01/08 07:26:29;;;;;;;14.38;11.32;;;;;;;5.47;71.91;95964.00;4983071;28;20053;-79
2023/01/08 07:28:57;;;;;;;17.33;11.52;;;;;;;5.44;72.23;95960.91;4996796;28;20047;-79
2023/01/08 07:31:24;;;;;;;15.52;11.35;;;;;;;5.43;72.28;95964.50;4993275;28;20053;-78
2023/01/08 07:33:52;;;;;;;15.68;10.77;;;;;;;5.43;72.10;95964.50;4975456;28;20047;-78
2023/01/08 07:36:21;;;;;;;16.20;11.40;;;;;;;5.44;72.12;95966.09;4977540;28;20054;-81
2023/01/08 07:38:49;;;;;;;15.13;11.07;;;;;;;5.43;72.39;95969.66;4980343;28;20062;-79
2023/01/08 07:41:17;;;;;;;14.65;11.18;;;;;;;5.44;72.16;95966.09;4964998;28;20520;-78
2023/01/08 07:43:48;;;;;;;14.57;10.68;;;;;;;5.44;72.27;95971.25;4973190;28;20054;-77
2023/01/08 07:46:16;;;;;;;15.98;11.57;;;;;;;5.46;72.41;95964.16;4973881;28;20503;-78
2023/01/08 07:48:43;;;;;;;16.50;11.80;;;;;;;5.45;72.46;95967.72;4974449;28;20054;-77
2023/01/08 07:51:11;;;;;;;16.40;12.45;;;;;;;5.46;72.72;95982.25;4974990;28;20061;-78
2023/01/08 07:53:38;;;;;;;15.35;12.52;;;;;;;5.47;72.62;95979.50;4974492;28;20050;-77
2023/01/08 07:56:08;;;;;;;17.13;11.55;;;;;;;5.45;72.27;95973.69;4974613;28;20062;-77
2023/01/08 07:58:36;;;;;;;17.75;12.82;;;;;;;5.41;72.32;95956.88;4974754;28;20051;-78
2023/01/08 08:01:09;;;;;;;16.33;11.85;;;;;;;5.38;72.55;95962.41;4974478;28;20053;-77
2023/01/08 08:03:37;;;;;;;;;;;;;;;5.38;72.65;95967.56;4975160;28;20046;-78
2023/01/08 08:06:05;;;;;;;16.90;12.00;;;;;;;5.38;72.40;95954.66;4974339;28;19922;-78
2023/01/08 08:08:33;;;;;;;16.73;12.63;;;;;;;5.36;72.50;95970.31;4973933;28;20061;-78
2023/01/08 08:11:00;;;;;;;15.27;12.02;;;;;;;5.36;72.39;95969.53;4974906;28;20477;-79
2023/01/08 08:13:28;;;;;;;17.13;12.55;;;;;;;5.34;72.89;95971.47;4996755;28;20057;-79
2023/01/08 08:15:55;;;;;;;14.82;11.55;;;;;;;5.33;72.99;95960.28;4996140;28;20045;-79
2023/01/08 08:18:24;;;;;;;17.70;12.93;;;;;;;5.33;72.62;95960.28;4985233;28;20113;-78
2023/01/08 08:20:52;;;;;;;18.83;14.73;;;;;;;5.32;72.77;95948.34;4974954;28;20051;-80
2023/01/08 08:23:19;;;;;;;19.48;14.73;;;;;;;5.32;73.12;95955.31;4976000;28;20050;-79
2023/01/08 08:25:47;;;;;;;19.67;13.38;;;;;;;5.29;73.17;95971.94;4975279;28;20436;-79
2023/01/08 08:28:14;;;;;;;22.80;14.75;;;;;;;5.30;73.16;95980.50;4975054;28;20066;-80
2023/01/08 08:30:42;;;;;;;24.55;14.40;;;;;;;5.33;73.55;95991.31;4975109;28;20058;-79
2023/01/08 08:33:10;;;;;;;18.77;12.25;;;;;;;5.33;73.24;95983.56;4974937;28;20571;-78
2023/01/08 08:35:39;;;;;;;19.08;13.10;;;;;;;5.33;73.86;95977.59;4975057;28;20061;-79
2023/01/08 08:38:07;;;;;;;15.75;11.52;;;;;;;5.36;73.73;95975.50;4974336;28;20047;-79
2023/01/08 08:40:34;;;;;;;17.80;13.10;;;;;;;5.40;73.75;95985.50;4974182;28;20050;-80
2023/01/08 08:43:03;;;;;;;17.67;12.75;;;;;;;5.44;73.84;95981.63;4974283;28;20047;-79
2023/01/08 08:45:31;;;;;;;15.00;12.13;;;;;;;5.46;74.05;95982.25;4974586;28;20050;-78
2023/01/08 08:47:59;;;;;;;18.55;12.23;;;;;;;5.47;74.09;95981.31;4974040;28;20061;-79
2023/01/08 08:50:26;;;;;;;17.92;12.65;;;;;;;5.49;74.33;95974.97;4973257;28;20046;-79
2023/01/08 08:53:00;;;;;;;17.52;12.68;;;;;;;5.47;74.49;95966.59;4974231;28;20054;-78
2023/01/08 08:55:28;;;;;;;17.48;12.70;;;;;;;5.41;74.39;95964.66;4974473;28;20069;-79
2023/01/08 08:58:03;;;;;;;19.13;13.35;;;;;;;5.44;75.66;95956.53;4973022;28;20053;-78
2023/01/08 09:00:30;;;;;;;15.60;12.15;;;;;;;5.47;74.59;95960.59;4974383;28;20061;-78
2023/01/08 09:02:58;;;;;;;16.48;12.35;;;;;;;5.51;74.38;95946.34;4973826;28;20047;-79
2023/01/08 09:05:27;;;;;;;14.52;12.13;;;;;;;5.49;74.61;95956.88;4974503;28;20047;-79
2023/01/08 09:07:56;;;;;;;18.77;12.32;;;;;;;5.53;74.92;95955.56;5002497;23;20060;-78
2023/01/08 09:10:25;;;;;;;16.10;12.18;;;;;;;5.55;75.06;95943.28;4992999;28;20053;-78
2023/01/08 09:12:53;;;;;;;17.95;12.52;;;;;;;5.56;75.02;95949.25;4992635;28;20050;-77
2023/01/08 09:15:21;;;;;;;15.43;11.70;;;;;;;5.55;75.05;95947.63;4993266;28;20050;-78
2023/01/08 09:17:52;;;;;;;14.30;11.73;;;;;;;5.53;75.63;95946.97;4991099;28;20505;-77
2023/01/08 09:20:20;;;;;;;17.30;12.55;;;;;;;5.52;75.65;95946.19;4992845;28;20054;-78
2023/01/08 09:22:48;;;;;;;14.77;12.07;;;;;;;5.52;75.75;95947.97;4988933;28;20522;-78
2023/01/08 09:25:15;;;;;;;17.20;12.27;;;;;;;5.54;75.69;95951.19;4990961;28;20055;-78
2023/01/08 09:27:44;;;;;;;18.20;11.63;;;;;;;5.56;76.17;95954.44;4992522;28;20046;-80
2023/01/08 09:30:12;;;;;;;14.00;10.43;;;;;;;5.58;75.99;95952.50;4977189;28;20125;-79
2023/01/08 09:32:40;;;;;;;13.65;10.55;;;;;;;5.58;76.35;95948.13;4978271;28;20508;-78
2023/01/08 09:35:08;;;;;;;15.10;11.15;;;;;;;5.61;76.58;95952.16;4993083;28;20065;-78
2023/01/08 09:37:36;;;;;;;13.68;10.82;;;;;;;5.64;76.79;95946.66;4994221;28;20054;-78
2023/01/08 09:40:14;;;;;;;13.80;10.18;;;;;;;5.68;77.39;95952.28;4994018;28;20133;-78
2023/01/08 09:42:42;;;;;;;14.70;9.90;;;;;;;5.68;76.91;95953.09;4994896;28;20134;-79
2023/01/08 09:45:21;;;;;;;13.13;9.88;;;;;;;5.68;77.42;95953.09;4993009;28;20050;-78
2023/01/08 09:47:49;;;;;;;15.02;9.90;;;;;;;5.71;77.46;95955.34;4992583;28;20053;-79
2023/01/08 09:50:17;;;;;;;12.82;9.27;;;;;;;5.74;77.78;95949.84;4992871;28;20067;-79
2023/01/08 09:52:45;;;;;;;11.25;8.73;;;;;;;5.79;77.51;95954.50;4992586;28;20045;-80
2023/01/08 09:55:14;;;;;;;10.60;8.02;;;;;;;5.83;78.06;95945.44;4993204;28;20061;-79
2023/01/08 09:57:43;;;;;;;10.85;8.05;;;;;;;5.91;78.14;95947.19;4975889;28;20050;-80
2023/01/08 10:00:16;;;;;;;17.83;9.90;;;;;;;5.95;78.38;95944.13;4973446;28;20062;-78
2023/01/08 10:02:44;;;;;;;;;;;;;;;6.01;78.94;95936.66;4977249;28;20053;-80
2023/01/08 10:05:14;;;;;;;12.23;7.22;;;;;;;6.05;78.29;95940.53;4976203;28;20399;-79
2023/01/08 10:07:42;;;;;;;19.73;11.25;;;;;;;6.12;78.44;95934.50;4980248;28;20054;-80
2023/01/08 10:10:17;;;;;;;13.30;7.90;;;;;;;6.21;78.82;95931.84;4981733;28;20062;-80
2023/01/08 10:12:45;;;;;;;11.68;7.45;;;;;;;6.28;78.44;95922.44;4997534;28;20046;-82
2023/01/08 10:15:17;;;;;;;9.98;6.03;;;;;;;6.35;78.56;95923.38;5012392;28;20050;-79
2023/01/08 10:17:47;;;;;;;5.78;4.55;;;;;;;6.42;78.51;95924.28;4993780;28;20062;-85
2023/01/08 10:20:16;;;;;;;7.38;5.28;;;;;;;6.50;78.02;95924.22;4983989;28;20050;-81
2023/01/08 10:22:44;;;;;;;8.82;5.65;;;;;;;6.58;78.03;95919.00;4996417;28;20148;-81
2023/01/08 10:25:15;;;;;;;7.90;5.30;;;;;;;6.67;78.08;95916.31;5001063;28;20133;-80
2023/01/08 10:27:47;;;;;;;8.45;4.65;;;;;;;6.74;78.23;95922.44;5001373;28;20050;-79
2023/01/08 10:30:18;;;;;;;5.93;4.22;;;;;;;6.82;78.19;95919.75;4986788;28;20535;-79
2023/01/08 10:32:48;;;;;;;4.07;2.80;;;;;;;6.89;78.42;95920.69;4996373;28;20043;-78
2023/01/08 10:35:18;;;;;;;5.75;3.28;;;;;;;6.98;78.12;95914.44;5002299;28;20476;-82
2023/01/08 10:37:49;;;;;;;3.97;2.60;;;;;;;7.06;78.02;95917.94;4989314;28;20055;-80
2023/01/08 10:40:30;;;;;;;1.98;1.73;;;;;;;7.13;78.17;95909.31;4984606;28;20148;-78
2023/01/08 10:43:06;;;;;;;1.73;1.42;;;;;;;7.21;78.24;95904.03;4997803;28;20133;-84
2023/01/08 10:45:35;;;;;;;1.70;1.08;;;;;;;7.26;77.87;95908.69;5001424;28;20050;-81
2023/01/08 10:48:07;;;;;;;1.33;1.17;;;;;;;7.30;77.75;95916.91;5001624;28;20077;-82
2023/01/08 10:50:35;;;;;;;0.70;0.63;;;;;;;7.32;77.51;95912.34;4994620;28;20046;-79
2023/01/08 10:53:04;;;;;;;0.90;0.73;;;;;;;7.36;77.55;95911.81;5001492;28;20047;-80
2023/01/08 10:55:34;;;;;;;1.20;0.65;;;;;;;7.42;77.51;95907.72;4995602;28;20054;-81
2023/01/08 10:58:04;;;;;;;2.88;1.20;;;;;;;7.47;77.62;95902.78;4982311;28;20408;-79
2023/01/08 11:00:35;;;;;;;1.55;0.88;;;;;;;7.51;77.84;95903.22;4980648;28;20137;-81
2023/01/08 11:03:06;;;;;;;1.25;0.95;;;;;;;7.55;77.41;95897.50;4980249;28;20507;-80
2023/01/08 11:05:35;;;;;;;2.72;1.10;;;;;;;7.59;77.32;95895.38;4981694;28;20106;-78
2023/01/08 11:08:06;;;;;;;3.05;1.08;;;;;;;7.61;77.57;95893.41;4980552;28;20078;-80
2023/01/08 11:10:36;;;;;;;5.45;1.30;;;;;;;7.66;77.81;95880.66;4980589;28;20516;-80
2023/01/08 11:13:07;;;;;;;3.05;0.90;;;;;;;7.74;77.67;95877.16;4979541;28;20063;-80
2023/01/08 11:15:38;;;;;;;0.85;0.75;;;;;;;7.79;77.81;95872.25;4981545;28;20047;-78
2023/01/08 11:18:13;;;;;;;1.48;0.77;;;;;;;7.84;77.22;95869.88;4993944;28;20097;-79
2023/01/08 11:20:40;;;;;;;1.02;0.85;;;;;;;7.89;77.23;95874.53;4999457;28;20050;-82
2023/01/08 11:23:16;;;;;;;1.27;0.82;;;;;;;7.93;77.39;95873.19;4988992;28;20077;-81
2023/01/08 11:25:49;;;;;;;2.70;1.15;;;;;;;7.95;76.66;95864.22;4988903;28;20046;-80
2023/01/08 11:28:33;;;;;;;1.00;0.82;;;;;;;7.98;76.49;95853.47;5001946;28;20054;-80
2023/01/08 11:31:13;;;;;;;1.40;0.70;;;;;;;8.01;76.44;95849.72;4999975;28;20137;-79
2023/01/08 11:33:42;;;;;;;2.17;0.70;;;;;;;8.03;76.13;95850.34;4998543;28;20058;-80
2023/01/08 11:36:16;;;;;;;1.55;0.90;;;;;;;8.05;75.99;95853.56;4993250;28;20050;-79
2023/01/08 11:38:48;;;;;;;1.58;0.70;;;;;;;8.09;75.95;95854.78;4983837;28;20051;-80
2023/01/08 11:41:38;;;;;;;1.50;0.63;;;;;;;8.13;75.94;95845.63;4981128;28;20054;-89
2023/01/08 11:44:20;;;;;;;0.73;0.60;;;;;;;8.17;75.68;95836.47;4981313;28;20058;-87
2023/01/08 11:47:00;;;;;;;0.55;0.50;;;;;;;8.19;75.33;95837.09;4984003;28;20051;-79
2023/01/08 11:49:51;;;;;;;0.82;0.38;;;;;;;8.23;74.67;95838.34;4988890;28;20043;-82
2023/01/08 11:52:34;;;;;;;1.15;0.40;;;;;;;8.23;74.36;95834.94;5019206;28;20072;-80
2023/01/08 11:55:15;;;;;;;0.57;0.43;;;;;;;8.23;74.13;95835.75;5020660;28;20054;-79
2023/01/08 11:57:56;;;;;;;0.80;0.55;;;;;;;8.26;74.35;95824.16;5020054;28;20136;-82
2023/01/08 12:00:41;;;;;;;0.50;0.50;;;;;;;8.30;73.58;95815.00;5020126;28;20575;-82
2023/01/08 12:03:24;;;;;;;0.68;0.30;;;;;;;8.32;73.29;95807.03;5019244;28;20058;-80
2023/01/08 12:05:57;;;;;;;;;;;;;;;8.33;73.05;95796.47;5013142;28;20050;-83
2023/01/08 12:08:32;;;;;;;0.57;0.40;;;;;;;8.34;72.49;95795.47;4985960;28;20017;-84
2023/01/08 12:11:12;;;;;;;0.73;0.73;;;;;;;8.37;72.84;95796.88;4980577;28;20077;-81
2023/01/08 12:14:00;;;;;;;0.68;0.40;;;;;;;8.41;72.74;95795.53;4991964;28;20051;-81
2023/01/08 12:16:41;;;;;;;0.43;0.43;;;;;;;8.47;72.48;95781.81;5004251;28;20061;-83
2023/01/08 12:19:22;;;;;;;0.98;0.55;;;;;;;8.51;71.98;95775.25;4984452;28;20085;-82
2023/01/08 12:22:09;;;;;;;1.05;0.63;;;;;;;8.54;71.87;95766.25;4984938;28;20051;-86
2023/01/08 12:24:53;;;;;;;0.65;0.65;;;;;;;8.59;71.87;95772.50;5005662;28;20061;-86
2023/01/08 12:27:32;;;;;;;0.65;0.60;;;;;;;8.61;70.90;95774.91;4995986;28;20138;-84
2023/01/08 12:30:31;;;;;;;0.55;0.50;;;;;;;8.64;71.80;95764.94;4990373;28;20065;-82
2023/01/08 12:33:03;;;;;;;0.55;0.45;;;;;;;8.69;70.71;95760.97;5003190;28;20065;-83
2023/01/08 12:35:36;;;;;;;0.90;0.73;;;;;;;8.69;70.62;95756.56;5004723;28;20054;-83
2023/01/08 12:38:09;;;;;;;0.75;0.60;;;;;;;8.70;70.17;95741.75;4990668;28;20043;-84
2023/01/08 12:40:39;;;;;;;;;;;;;;;8.74;69.62;95737.78;4985560;28;20047;-83
2023/01/08 12:43:13;;;;;;;0.55;0.45;;;;;;;8.77;70.48;95727.03;4996426;28;19948;-80